Time;durP1;ratioP1;P1;durP2;ratioP2;P2;SDS_P1;SDS_P2;PMS_P1;PMS_P2;Temp;Humidity;BMP_temperature;BMP_pressure;BME280_temperature;BME280_humidity;BME280_pressure;Samples;Min_cycle;Max_cycle;Signal;HPM_P1;HPM_P2
2021/10/28 00:13:53;;;;;;;36.50;22.08;;;;;;;9.16;77.91;100997.41;5060047;28;20060;-72
2021/10/28 00:16:26;;;;;;;38.28;22.08;;;;;;;8.94;78.34;100991.19;5046292;28;20261;-72
2021/10/28 00:19:00;;;;;;;28.92;17.73;;;;;;;8.88;78.70;100986.41;5054254;28;20025;-71
2021/10/28 00:21:27;;;;;;;42.10;23.97;;;;;;;8.83;78.20;100996.50;5052994;28;20177;-71
2021/10/28 00:23:59;;;;;;;36.70;22.90;;;;;;;8.77;78.25;100996.97;5056191;28;20585;-72
2021/10/28 00:26:24;;;;;;;36.63;22.92;;;;;;;8.89;77.90;100997.81;5050978;28;20357;-72
2021/10/28 00:28:56;;;;;;;37.63;22.90;;;;;;;9.02;76.71;100987.94;5051043;28;20028;-72
2021/10/28 00:31:22;;;;;;;40.03;23.40;;;;;;;8.82;77.54;100988.69;5036350;28;20041;-72
2021/10/28 00:33:48;;;;;;;40.92;23.27;;;;;;;8.54;78.73;100988.19;5063819;28;20039;-72
2021/10/28 00:36:13;;;;;;;39.15;23.55;;;;;;;8.57;78.27;100982.69;5058978;28;20032;-72
2021/10/28 00:38:39;;;;;;;38.95;23.98;;;;;;;8.66;78.29;100990.84;5056495;28;20053;-72
2021/10/28 00:41:06;;;;;;;40.88;22.45;;;;;;;8.68;77.80;100986.28;5044863;28;20203;-71
2021/10/28 00:43:33;;;;;;;37.70;22.67;;;;;;;8.62;77.57;100977.88;5043082;28;20033;-71
2021/10/28 00:46:02;;;;;;;37.67;23.15;;;;;;;8.62;77.47;100980.53;5051320;28;20029;-72
2021/10/28 00:48:27;;;;;;;39.10;22.23;;;;;;;8.55;77.12;100981.97;5055741;28;20388;-72
2021/10/28 00:50:53;;;;;;;41.00;25.15;;;;;;;8.35;78.03;100965.97;5029327;28;20022;-72
2021/10/28 00:53:20;;;;;;;48.28;24.15;;;;;;;8.19;78.84;100979.44;5055994;28;20342;-72
2021/10/28 00:55:46;;;;;;;40.70;24.33;;;;;;;8.19;78.87;100976.81;5055093;28;20036;-72
2021/10/28 00:58:12;;;;;;;44.80;25.38;;;;;;;8.15;78.58;100968.28;5050894;28;20024;-72
2021/10/28 01:00:38;;;;;;;42.42;24.35;;;;;;;8.32;78.36;100977.53;5052807;28;20028;-72
2021/10/28 01:03:03;;;;;;;42.10;22.70;;;;;;;8.25;77.84;100973.69;5024670;28;20319;-71
2021/10/28 01:05:30;;;;;;;45.63;25.70;;;;;;;8.15;78.18;100960.38;5042464;28;20056;-71
2021/10/28 01:07:56;;;;;;;49.95;24.70;;;;;;;8.11;78.33;100956.28;5033155;28;20317;-72
2021/10/28 01:10:21;;;;;;;39.78;23.80;;;;;;;8.25;77.83;100963.97;5047064;28;20298;-72
2021/10/28 01:12:47;;;;;;;34.58;21.08;;;;;;;8.37;77.44;100964.06;5058892;28;20044;-72
2021/10/28 01:15:14;;;;;;;39.38;21.13;;;;;;;8.09;78.33;100962.63;5061974;28;20096;-72
2021/10/28 01:17:40;;;;;;;38.05;21.15;;;;;;;7.99;78.84;100968.59;5051561;28;20029;-72
2021/10/28 01:20:07;;;;;;;39.63;21.02;;;;;;;8.11;77.91;100956.28;5042814;28;20031;-72
2021/10/28 01:22:33;;;;;;;39.38;20.73;;;;;;;8.07;78.17;100957.47;5056364;28;20040;-72
2021/10/28 01:24:58;;;;;;;42.65;21.05;;;;;;;8.10;78.45;100961.69;5046449;28;20040;-71
2021/10/28 01:27:24;;;;;;;39.45;19.85;;;;;;;8.19;77.75;100961.81;5042105;28;20092;-73
2021/10/28 01:29:49;;;;;;;33.15;20.63;;;;;;;8.05;77.68;100962.03;5047790;28;20491;-72
2021/10/28 01:32:15;;;;;;;35.08;20.17;;;;;;;8.17;76.87;100962.88;5047628;28;20036;-72
2021/10/28 01:34:42;;;;;;;38.03;19.83;;;;;;;8.06;77.17;100962.88;5041936;28;20029;-72
2021/10/28 01:37:08;;;;;;;37.00;20.42;;;;;;;8.02;77.36;100960.47;5042404;28;20394;-72
2021/10/28 01:39:33;;;;;;;31.92;18.90;;;;;;;8.02;77.55;100962.25;5056287;28;20080;-72
2021/10/28 01:41:58;;;;;;;35.03;19.77;;;;;;;8.19;76.56;100960.97;5060272;28;20104;-72
2021/10/28 01:44:25;;;;;;;34.90;19.23;;;;;;;8.11;76.51;100952.81;5061439;28;20084;-71
2021/10/28 01:46:50;;;;;;;35.38;19.42;;;;;;;8.15;76.48;100960.38;5058413;28;20318;-71
2021/10/28 01:49:21;;;;;;;32.97;19.20;;;;;;;8.10;76.62;100965.16;5044586;28;20017;-72
2021/10/28 01:51:47;;;;;;;32.67;18.05;;;;;;;8.17;75.66;100958.44;5061524;28;20029;-72
2021/10/28 01:54:12;;;;;;;35.55;18.13;;;;;;;8.02;76.01;100962.25;5060750;28;20060;-72
2021/10/28 01:56:38;;;;;;;34.67;18.33;;;;;;;8.27;75.28;100961.22;5046978;28;20052;-72
2021/10/28 01:59:03;;;;;;;30.23;17.58;;;;;;;8.23;75.08;100967.69;5042006;28;20052;-72
2021/10/28 02:01:29;;;;;;;34.63;18.67;;;;;;;8.10;75.79;100966.94;5052646;28;20266;-72
2021/10/28 02:03:54;;;;;;;32.92;18.73;;;;;;;8.04;75.66;100957.69;5050369;28;20314;-72
2021/10/28 02:06:20;;;;;;;32.83;17.38;;;;;;;8.10;75.52;100961.69;5053040;28;20048;-71
2021/10/28 02:08:46;;;;;;;34.47;17.38;;;;;;;7.88;75.83;100951.91;5061066;28;20086;-72
2021/10/28 02:11:11;;;;;;;29.48;17.50;;;;;;;7.98;75.02;100959.00;5053366;28;20246;-72
2021/10/28 02:13:36;;;;;;;27.65;16.77;;;;;;;7.88;75.72;100954.53;5048099;28;20037;-72
2021/10/28 02:16:02;;;;;;;34.08;17.23;;;;;;;7.95;75.29;100959.25;5041382;28;20029;-72
2021/10/28 02:18:29;;;;;;;34.00;17.60;;;;;;;8.14;73.86;100961.31;5045622;28;20036;-72
2021/10/28 02:20:54;;;;;;;26.55;16.70;;;;;;;7.87;74.97;100958.97;5058947;28;20341;-72
2021/10/28 02:23:20;;;;;;;28.63;16.92;;;;;;;7.75;75.38;100966.97;5056633;28;20056;-72
2021/10/28 02:25:45;;;;;;;30.63;16.70;;;;;;;7.42;76.57;100957.13;5060405;28;20480;-71
2021/10/28 02:28:10;;;;;;;30.63;16.00;;;;;;;7.48;76.69;100959.31;5060223;28;20025;-71
2021/10/28 02:30:36;;;;;;;28.73;17.67;;;;;;;7.61;76.80;100960.91;5059871;28;20032;-72
2021/10/28 02:33:01;;;;;;;27.60;16.20;;;;;;;7.51;76.53;100962.56;5034024;28;20335;-72
2021/10/28 02:35:27;;;;;;;29.38;17.27;;;;;;;7.80;74.95;100964.81;5056903;28;20227;-72
2021/10/28 02:37:53;;;;;;;33.40;16.42;;;;;;;7.77;75.52;100955.34;5052561;28;20024;-72
2021/10/28 02:40:18;;;;;;;29.27;16.55;;;;;;;7.78;74.95;100964.94;5058991;28;20039;-72
2021/10/28 02:42:43;;;;;;;28.20;15.82;;;;;;;7.55;76.48;100966.66;5060792;28;20021;-72
2021/10/28 02:45:10;;;;;;;30.00;16.38;;;;;;;7.65;75.66;100972.06;5058903;28;20088;-72
2021/10/28 02:47:36;;;;;;;28.33;15.82;;;;;;;7.74;75.20;100970.56;5046328;28;20022;-71
2021/10/28 02:50:02;;;;;;;25.25;16.13;;;;;;;7.52;75.83;100964.22;5023524;28;20021;-71
2021/10/28 02:52:28;;;;;;;27.25;15.82;;;;;;;7.29;76.93;100960.66;5041625;28;20339;-72
2021/10/28 02:54:54;;;;;;;29.25;16.15;;;;;;;7.62;76.03;100962.59;5058101;28;20029;-72
2021/10/28 02:57:20;;;;;;;33.67;15.85;;;;;;;7.68;74.75;100967.41;5041759;28;20064;-72
2021/10/28 02:59:45;;;;;;;34.45;16.88;;;;;;;7.81;74.90;100979.69;5040558;28;20080;-72
2021/10/28 03:02:11;;;;;;;27.95;17.95;;;;;;;7.83;73.83;100969.88;5046525;28;20025;-72
2021/10/28 03:04:37;;;;;;;37.10;21.73;;;;;;;7.72;73.90;100967.19;5040445;28;20206;-72
2021/10/28 03:07:03;;;;;;;34.78;22.42;;;;;;;7.65;74.15;100974.72;5059299;28;20040;-72
2021/10/28 03:09:29;;;;;;;39.83;23.58;;;;;;;7.68;74.75;100983.22;5042355;28;20241;-71
2021/10/28 03:11:57;;;;;;;37.28;21.27;;;;;;;7.65;74.24;100975.56;5044837;28;20034;-72
2021/10/28 03:14:30;;;;;;;42.63;21.27;;;;;;;7.55;74.94;100990.38;5052652;28;20083;-72
2021/10/28 03:27:47;;;;;;;;;;;;;;;7.69;74.37;100984.06;5040689;28;20397;-72
2021/10/28 03:30:12;;;;;;;31.88;18.48;;;;;;;7.55;75.15;100989.53;5040598;28;20206;-71
2021/10/28 03:32:39;;;;;;;29.42;17.40;;;;;;;7.59;75.06;100988.34;5045044;28;20029;-72
2021/10/28 03:35:08;;;;;;;30.05;17.55;;;;;;;7.55;74.49;100994.78;5053324;28;20024;-72
2021/10/28 03:37:45;;;;;;;26.45;15.75;;;;;;;7.54;74.44;100987.84;5045218;28;20030;-71
2021/10/28 04:30:21;;;;;;;31.40;17.70;;;;;;;7.20;73.70;101028.94;5064165;28;20242;-71
2021/10/28 04:32:48;;;;;;;30.52;17.98;;;;;;;7.07;73.86;101018.41;5046231;28;20131;-72
2021/10/28 04:35:13;;;;;;;37.20;19.10;;;;;;;7.15;73.53;101028.41;5064121;28;20059;-72
2021/10/28 04:37:39;;;;;;;44.70;17.65;;;;;;;7.17;74.15;101037.03;5064086;28;20025;-72
2021/10/28 04:40:06;;;;;;;34.28;17.15;;;;;;;7.26;73.72;101039.03;5046090;28;20021;-72
2021/10/28 04:42:32;;;;;;;32.63;17.70;;;;;;;7.10;74.01;101035.78;5064097;28;20025;-72
2021/10/28 04:44:58;;;;;;;33.33;18.13;;;;;;;6.95;75.37;101040.34;5063664;28;20036;-72
2021/10/28 04:47:23;;;;;;;36.40;20.65;;;;;;;6.87;75.54;101029.50;5063830;28;20028;-71
2021/10/28 04:49:48;;;;;;;49.97;29.30;;;;;;;7.15;74.55;101031.03;5063575;28;20033;-71
2021/10/28 04:52:14;;;;;;;52.08;27.55;;;;;;;7.30;72.99;101035.25;5063616;28;20230;-72
2021/10/28 04:54:40;;;;;;;41.60;23.33;;;;;;;7.18;73.96;101038.72;5063797;28;20048;-72
2021/10/28 04:57:06;;;;;;;43.80;21.10;;;;;;;7.31;73.32;101047.47;5050962;28;20028;-72
2021/10/28 04:59:32;;;;;;;35.08;19.42;;;;;;;7.02;74.68;101033.72;5050187;28;20024;-72
2021/10/28 05:01:57;;;;;;;37.53;20.25;;;;;;;7.30;73.86;101048.44;5047779;28;20075;-72
2021/10/28 05:04:24;;;;;;;48.33;20.10;;;;;;;6.93;75.44;101042.25;5055997;28;20036;-72
2021/10/28 05:06:52;;;;;;;42.30;20.83;;;;;;;7.26;73.77;101046.94;5051672;28;20056;-72
2021/10/28 05:09:23;;;;;;;38.90;20.02;;;;;;;7.25;74.09;101054.00;5042310;28;20052;-71
2021/10/28 05:11:49;;;;;;;35.60;19.95;;;;;;;7.31;74.32;101050.13;5041245;28;20041;-72
2021/10/28 05:14:14;;;;;;;39.75;19.58;;;;;;;7.19;74.30;101048.31;5041658;28;20215;-72
2021/10/28 05:16:40;;;;;;;48.55;21.73;;;;;;;7.22;74.97;101056.00;5042466;28;20339;-72
2021/10/28 05:19:06;;;;;;;41.58;22.00;;;;;;;7.56;73.36;101047.41;5041979;28;20021;-72
2021/10/28 05:21:31;;;;;;;41.38;21.95;;;;;;;7.61;72.23;101049.69;5053692;28;20041;-72
2021/10/28 05:23:57;;;;;;;42.97;23.17;;;;;;;7.25;74.62;101058.41;5039348;28;20029;-72
2021/10/28 05:26:22;;;;;;;42.55;24.58;;;;;;;7.40;73.80;101053.88;5041757;28;20041;-72
2021/10/28 05:28:48;;;;;;;51.40;26.73;;;;;;;7.48;73.51;101056.81;5029959;28;20088;-72
2021/10/28 05:31:13;;;;;;;48.40;27.73;;;;;;;7.37;74.34;101060.22;5046087;28;20041;-72
2021/10/28 05:33:39;;;;;;;62.90;29.77;;;;;;;7.47;74.62;101068.31;5048790;28;20446;-72
2021/10/28 05:36:05;;;;;;;57.53;29.63;;;;;;;7.51;74.32;101067.97;5027831;28;20040;-72
2021/10/28 05:38:30;;;;;;;63.83;32.88;;;;;;;7.65;74.30;101064.34;5049490;28;20045;-72
2021/10/28 05:40:56;;;;;;;62.78;33.53;;;;;;;7.80;73.66;101068.50;5034413;28;20025;-72
2021/10/28 05:43:21;;;;;;;65.53;35.42;;;;;;;7.88;74.26;101079.34;5042119;28;20315;-72
2021/10/28 05:45:48;;;;;;;60.05;32.58;;;;;;;7.79;74.49;101081.78;5044729;28;20089;-72
2021/10/28 05:48:14;;;;;;;54.65;29.77;;;;;;;7.80;75.00;101078.22;5046774;28;20072;-71
2021/10/28 05:50:45;;;;;;;51.92;28.20;;;;;;;7.93;73.88;101074.56;5023914;28;20404;-72
2021/10/28 05:53:11;;;;;;;58.55;27.83;;;;;;;7.97;74.31;101083.09;5041867;28;20079;-72
2021/10/28 05:55:36;;;;;;;59.55;28.52;;;;;;;7.98;74.49;101082.97;5048837;28;20204;-73
2021/10/28 05:58:02;;;;;;;50.30;28.33;;;;;;;7.79;75.65;101079.16;5049082;28;20100;-73
2021/10/28 06:00:27;;;;;;;52.97;28.10;;;;;;;7.87;75.67;101096.09;5046664;28;20032;-72
2021/10/28 06:02:53;;;;;;;53.40;25.80;;;;;;;8.09;75.35;101084.81;5028280;28;20020;-72
2021/10/28 06:05:19;;;;;;;54.80;26.55;;;;;;;8.38;74.66;101087.16;5045725;28;20231;-73
2021/10/28 06:07:45;;;;;;;45.55;24.33;;;;;;;8.56;74.44;101089.25;5047594;28;20030;-72
2021/10/28 06:10:12;;;;;;;45.35;23.30;;;;;;;8.60;74.04;101098.63;5044996;28;20044;-72
2021/10/28 06:12:44;;;;;;;35.60;19.70;;;;;;;9.01;72.93;101096.38;5048274;28;20035;-72
2021/10/28 06:15:12;;;;;;;35.05;19.10;;;;;;;9.25;71.85;101095.31;5039554;28;20037;-73
2021/10/28 06:17:46;;;;;;;35.45;19.60;;;;;;;9.49;70.97;101103.13;5048614;28;20243;-73
2021/10/28 06:20:11;;;;;;;35.17;19.73;;;;;;;9.43;71.30;101102.78;5065332;28;20143;-72
2021/10/28 06:22:37;;;;;;;38.88;19.80;;;;;;;9.40;72.05;101105.66;5052608;28;20060;-72
2021/10/28 06:25:03;;;;;;;43.42;20.48;;;;;;;9.71;71.60;101110.19;5046315;28;20056;-72
2021/10/28 06:27:28;;;;;;;36.88;18.40;;;;;;;9.74;71.90;101111.75;5052324;28;20256;-71
2021/10/28 06:29:54;;;;;;;28.20;16.80;;;;;;;9.96;70.60;101105.56;5055757;28;20405;-73
2021/10/28 06:32:20;;;;;;;25.95;17.27;;;;;;;10.12;71.11;101111.28;5049521;28;20040;-72
2021/10/28 06:34:47;;;;;;;33.45;17.77;;;;;;;10.24;70.36;101111.16;5050682;28;20052;-72
2021/10/28 06:37:13;;;;;;;32.58;17.92;;;;;;;10.50;69.38;101103.72;5051664;28;20395;-72
2021/10/28 06:39:40;;;;;;;27.08;17.52;;;;;;;10.72;68.58;101073.59;5048552;28;20041;-73
2021/10/28 06:42:10;;;;;;;28.05;17.05;;;;;;;11.16;66.50;101096.28;5048924;28;20334;-73
2021/10/28 06:44:35;;;;;;;34.80;18.02;;;;;;;11.35;66.68;101113.25;5051365;28;20063;-73
2021/10/28 06:47:01;;;;;;;24.35;15.57;;;;;;;11.48;66.29;101112.06;5060923;28;20041;-72
2021/10/28 06:49:29;;;;;;;29.58;16.98;;;;;;;11.70;65.47;101103.06;5058651;28;20345;-72
2021/10/28 06:51:55;;;;;;;25.23;15.43;;;;;;;11.77;65.45;101104.22;5048398;28;20040;-72
2021/10/28 06:54:31;;;;;;;29.17;13.68;;;;;;;12.01;63.83;101118.94;5046501;28;20124;-72
2021/10/28 07:02:16;;;;;;;28.77;14.18;;;;;;;12.11;64.78;101114.47;5052214;28;20032;-72
2021/10/28 07:04:42;;;;;;;25.98;13.52;;;;;;;12.32;63.93;101111.69;5043216;28;20101;-71
2021/10/28 07:07:08;;;;;;;22.40;14.65;;;;;;;12.32;62.68;101093.94;5051892;28;20039;-72
2021/10/28 07:09:36;;;;;;;29.60;14.57;;;;;;;12.33;64.17;101108.88;5053041;28;20033;-73
2021/10/28 07:14:33;;;;;;;33.28;16.88;;;;;;;12.75;62.65;101108.59;5044782;28;20025;-73
2021/10/28 07:35:32;;;;;;;22.15;14.52;;;;;;;13.27;60.85;101091.25;5022794;28;20032;-72
2021/10/28 08:05:30;;;;;;;21.13;11.48;;;;;;;13.92;59.95;101081.38;5037435;28;20382;-73
2021/10/28 08:29:38;;;;;;;19.27;11.82;;;;;;;14.82;56.68;101069.69;5063092;28;20064;-73
2021/10/28 08:32:06;;;;;;;18.70;11.70;;;;;;;14.66;56.43;101066.91;5056439;28;20039;-73
2021/10/28 08:34:34;;;;;;;19.55;11.57;;;;;;;14.69;56.89;101062.09;5056111;28;20083;-73
2021/10/28 08:37:08;;;;;;;23.45;14.32;;;;;;;14.99;55.32;101060.78;5048834;28;20104;-72
2021/10/28 08:39:34;;;;;;;20.58;12.23;;;;;;;15.23;54.36;101065.38;5047066;28;20040;-72
2021/10/28 08:42:05;;;;;;;17.48;10.95;;;;;;;15.41;53.76;101064.47;5055805;28;20112;-73
2021/10/28 08:44:32;;;;;;;15.60;10.70;;;;;;;15.55;54.76;101056.66;5047710;28;20274;-73
2021/10/28 08:47:00;;;;;;;16.65;10.93;;;;;;;15.45;54.96;101057.78;5050445;28;20056;-73
2021/10/28 08:49:32;;;;;;;14.15;10.82;;;;;;;15.54;54.38;101059.50;5050812;28;20041;-73
2021/10/28 09:24:33;;;;;;;19.98;11.52;;;;;;;15.53;53.39;101036.47;5046721;28;20196;-73
2021/10/28 09:29:57;;;;;;;15.88;10.60;;;;;;;15.47;54.89;101032.63;5051412;28;20140;-73
2021/10/28 09:32:38;;;;;;;16.92;11.13;;;;;;;15.25;55.35;101041.22;5051085;28;20074;-73
2021/10/28 09:46:31;;;;;;;;;;;;;;;15.14;56.07;101021.00;5050045;28;20331;-73
2021/10/28 09:52:28;;;;;;;18.25;11.23;;;;;;;15.57;55.16;101000.44;5045850;28;20274;-73
2021/10/28 09:54:51;;;;;;;21.80;12.15;;;;;;;15.58;54.99;101002.13;5037993;28;20045;-73
2021/10/28 10:00:07;;;;;;;18.50;11.63;;;;;;;15.53;54.53;100988.41;5044392;28;20032;-72
2021/10/28 10:05:04;;;;;;;17.83;10.75;;;;;;;15.58;53.95;100984.28;5045955;28;20331;-73
2021/10/28 10:07:31;;;;;;;17.35;10.45;;;;;;;15.57;54.70;100982.63;5054740;28;20041;-73
2021/10/28 10:09:59;;;;;;;15.43;10.23;;;;;;;15.74;53.11;100983.50;5037270;28;20036;-73
2021/10/28 10:12:26;;;;;;;17.13;10.60;;;;;;;15.81;52.33;100973.00;5058289;28;20353;-73
2021/10/28 10:14:51;;;;;;;17.05;10.30;;;;;;;15.61;53.48;100975.16;5061867;28;20025;-73
2021/10/28 10:17:17;;;;;;;15.95;10.20;;;;;;;15.75;52.29;100954.97;5062113;28;20280;-73
2021/10/28 10:19:48;;;;;;;17.52;10.40;;;;;;;16.03;52.95;100953.63;5062121;28;20370;-73
2021/10/28 12:16:10;;;;;;;;;;;;;;;15.73;45.29;100829.63;5053404;28;20090;-73
2021/10/28 12:21:54;;;;;;;10.95;5.20;;;;;;;16.09;44.84;100834.56;5046707;28;20075;-73
2021/10/28 12:47:22;;;;;;;15.57;5.35;;;;;;;16.20;44.94;100802.97;5049614;28;20032;-73
2021/10/28 12:52:49;;;;;;;8.23;4.88;;;;;;;15.77;45.44;100806.94;5033402;28;20045;-73
2021/10/28 14:35:02;;;;;;;8.35;4.05;;;;;;;15.61;45.06;100777.59;5053290;28;20907;-73
2021/10/28 15:28:58;;;;;;;32.30;13.23;;;;;;;14.44;53.75;100775.06;5053794;28;20897;-68
2021/10/28 15:31:47;;;;;;;41.67;17.27;;;;;;;14.62;53.13;100775.81;5054783;28;20041;-65
2021/10/28 15:42:25;;;;;;;19.35;6.22;;;;;;;14.27;54.41;100786.63;5059562;28;20039;-68
2021/10/28 16:00:51;;;;;;;14.02;8.32;;;;;;;13.97;55.50;100794.16;5057357;28;20066;-65
2021/10/28 16:22:25;;;;;;;33.70;16.58;;;;;;;13.33;56.95;100802.53;5060320;28;20027;-65
2021/10/28 16:24:51;;;;;;;42.30;17.52;;;;;;;13.36;56.59;100799.56;5057486;28;20037;-68
2021/10/28 16:27:16;;;;;;;35.00;17.35;;;;;;;13.40;56.58;100806.22;5057584;28;20021;-68
2021/10/28 16:29:42;;;;;;;31.05;16.13;;;;;;;13.51;56.23;100795.34;5056930;28;20065;-68
2021/10/28 16:32:07;;;;;;;31.08;15.40;;;;;;;13.42;56.74;100807.75;5056912;28;20033;-66
2021/10/28 16:34:33;;;;;;;36.35;16.70;;;;;;;13.67;56.20;100810.63;5056594;28;20029;-65
2021/10/28 16:36:59;;;;;;;32.97;16.77;;;;;;;13.56;56.28;100792.25;5057832;28;20037;-65
2021/10/28 16:39:25;;;;;;;26.92;14.60;;;;;;;13.54;56.12;100805.72;5057733;28;20396;-65
2021/10/28 16:41:54;;;;;;;34.03;16.13;;;;;;;13.56;56.69;100809.06;5056847;28;20052;-65
2021/10/28 16:44:20;;;;;;;35.75;15.32;;;;;;;13.47;56.78;100812.59;5058437;28;20055;-68
2021/10/28 16:46:47;;;;;;;26.33;13.98;;;;;;;13.29;57.16;100815.28;5055997;28;20025;-66
2021/10/28 16:49:14;;;;;;;25.33;14.32;;;;;;;13.18;57.39;100812.88;5058033;28;20045;-68
2021/10/28 16:51:41;;;;;;;36.00;13.00;;;;;;;13.08;57.71;100810.25;5059307;28;20028;-66
2021/10/28 16:54:07;;;;;;;26.17;13.30;;;;;;;13.14;57.64;100814.13;5057841;28;20234;-68
2021/10/28 16:56:33;;;;;;;26.92;13.35;;;;;;;13.03;57.65;100814.38;5057045;28;20206;-66
2021/10/28 16:58:58;;;;;;;27.42;13.82;;;;;;;13.11;57.84;100815.28;5057954;28;20047;-68
2021/10/28 17:01:25;;;;;;;34.10;14.18;;;;;;;13.05;57.93;100813.22;5057816;28;20067;-66
2021/10/28 17:03:51;;;;;;;24.58;12.73;;;;;;;12.83;59.16;100820.81;5057705;28;20029;-66
2021/10/28 17:06:17;;;;;;;29.20;15.38;;;;;;;12.60;61.61;100825.72;5057963;28;20052;-66
2021/10/28 17:08:44;;;;;;;28.60;15.77;;;;;;;12.73;61.35;100828.84;5057458;28;20340;-68
2021/10/28 17:11:10;;;;;;;112.18;46.90;;;;;;;12.68;61.65;100829.28;5057705;28;20075;-68
2021/10/28 17:13:36;;;;;;;123.45;52.20;;;;;;;12.59;61.87;100829.34;5057589;28;20397;-66
2021/10/28 17:16:02;;;;;;;102.53;44.50;;;;;;;12.83;61.74;100832.28;5055896;28;20336;-65
2021/10/28 17:18:27;;;;;;;114.38;47.35;;;;;;;12.82;61.33;100822.63;5056868;28;20033;-65
2021/10/28 17:20:56;;;;;;;102.22;44.35;;;;;;;12.87;61.44;100832.81;5056656;28;20048;-66
2021/10/28 17:23:30;;;;;;;92.30;43.47;;;;;;;12.81;61.81;100830.75;5055237;28;20088;-68
2021/10/28 17:25:56;;;;;;;88.07;39.97;;;;;;;12.75;62.10;100842.81;5056636;28;20234;-65
2021/10/28 17:28:23;;;;;;;82.07;38.95;;;;;;;12.73;61.59;100831.50;5056746;28;20041;-65
2021/10/28 17:30:49;;;;;;;80.63;35.03;;;;;;;12.62;62.60;100834.38;5057408;28;20028;-65
2021/10/28 17:33:14;;;;;;;88.00;38.08;;;;;;;12.68;62.10;100836.44;5057041;28;20048;-65
2021/10/28 17:35:40;;;;;;;73.47;37.80;;;;;;;12.49;62.11;100847.16;5056362;28;20041;-65
2021/10/28 17:38:06;;;;;;;86.38;41.72;;;;;;;12.45;62.37;100847.44;5057010;28;20025;-66
2021/10/28 17:40:31;;;;;;;46.20;23.40;;;;;;;12.26;62.30;100841.38;5056287;28;20029;-68
2021/10/28 17:42:57;;;;;;;63.00;30.45;;;;;;;12.20;62.78;100841.94;5055687;28;20047;-65
2021/10/28 17:45:27;;;;;;;59.10;28.45;;;;;;;12.15;62.57;100845.88;5061806;28;20044;-65
2021/10/28 17:47:54;;;;;;;61.95;32.50;;;;;;;12.15;63.06;100848.53;5061862;28;20029;-65
2021/10/28 17:50:21;;;;;;;43.10;21.30;;;;;;;12.25;61.69;100852.97;5061568;28;20078;-66
2021/10/28 17:52:47;;;;;;;55.80;28.77;;;;;;;12.27;61.99;100833.25;5060792;28;20029;-68
2021/10/28 17:55:13;;;;;;;65.05;30.75;;;;;;;12.36;63.17;100856.28;5060946;28;20063;-66
2021/10/28 17:57:49;;;;;;;62.97;29.95;;;;;;;12.32;62.82;100843.44;5060644;28;20100;-68
2021/10/28 18:00:15;;;;;;;56.15;25.95;;;;;;;12.43;62.70;100851.22;5061622;28;20112;-68
2021/10/28 18:02:41;;;;;;;61.38;29.70;;;;;;;12.45;60.94;100866.03;5061892;28;20037;-65
2021/10/28 18:05:07;;;;;;;62.88;28.60;;;;;;;12.31;61.57;100863.84;5060597;28;20196;-65
2021/10/28 18:07:33;;;;;;;69.60;32.80;;;;;;;12.23;61.91;100865.56;5061945;28;20037;-66
2021/10/28 18:09:59;;;;;;;63.95;29.73;;;;;;;12.19;62.13;100861.50;5061558;28;20075;-66
2021/10/28 18:12:26;;;;;;;58.92;29.38;;;;;;;12.18;62.26;100860.69;5061103;28;20031;-68
2021/10/28 18:14:52;;;;;;;106.60;42.88;;;;;;;12.23;62.22;100866.38;5061530;28;20025;-68
2021/10/28 18:17:18;;;;;;;91.40;40.35;;;;;;;12.19;62.88;100861.50;5061696;28;20152;-66
2021/10/28 18:19:44;;;;;;;68.70;33.15;;;;;;;12.02;63.17;100852.50;5059514;28;20025;-65
2021/10/28 18:22:09;;;;;;;54.55;26.10;;;;;;;12.00;62.09;100868.56;5061666;28;20070;-65
2021/10/28 18:24:35;;;;;;;69.85;29.50;;;;;;;11.90;63.45;100853.63;5061554;28;20024;-68
2021/10/28 18:27:01;;;;;;;50.78;26.55;;;;;;;11.94;63.66;100868.28;5061887;28;20032;-65
2021/10/28 18:29:27;;;;;;;55.17;26.13;;;;;;;11.68;64.11;100873.34;5060656;28;20218;-68
2021/10/28 18:31:52;;;;;;;45.85;23.98;;;;;;;11.78;62.71;100877.69;5061494;28;20033;-68
2021/10/28 18:34:18;;;;;;;42.80;22.52;;;;;;;11.52;63.80;100873.91;5060257;28;20037;-65
2021/10/28 18:36:44;;;;;;;50.90;24.15;;;;;;;11.21;64.84;100870.53;5061279;28;20029;-68
2021/10/28 18:39:14;;;;;;;45.88;22.95;;;;;;;11.08;64.68;100859.38;5061003;28;20029;-68
2021/10/28 18:41:40;;;;;;;55.25;27.65;;;;;;;10.85;66.86;100872.88;5061266;28;20039;-65
2021/10/28 18:44:06;;;;;;;44.40;24.75;;;;;;;10.90;66.08;100875.09;5060684;28;20139;-66
2021/10/28 18:46:33;;;;;;;60.25;29.75;;;;;;;10.93;66.67;100879.28;5061341;28;20062;-68
2021/10/28 18:48:59;;;;;;;53.33;28.50;;;;;;;10.86;67.42;100879.00;5061009;28;20070;-70
2021/10/28 18:51:26;;;;;;;51.97;26.35;;;;;;;11.02;66.55;100883.78;5060920;28;20029;-69
2021/10/28 18:53:52;;;;;;;45.83;25.27;;;;;;;10.92;67.03;100869.66;5060880;28;20032;-70
2021/10/28 18:56:18;;;;;;;45.63;23.85;;;;;;;11.01;67.35;100877.63;5060861;28;20036;-70
2021/10/28 18:58:45;;;;;;;37.30;22.15;;;;;;;10.84;67.47;100876.47;5060840;28;20060;-67
2021/10/28 19:01:15;;;;;;;41.40;20.23;;;;;;;10.84;67.89;100879.13;5061333;28;20218;-70
2021/10/28 19:03:42;;;;;;;40.92;21.83;;;;;;;10.66;68.45;100886.06;5060938;28;20033;-70
2021/10/28 19:06:10;;;;;;;40.53;21.60;;;;;;;10.60;68.17;100880.47;5060112;28;20044;-70
2021/10/28 19:08:38;;;;;;;38.38;20.40;;;;;;;10.50;68.92;100881.25;5063509;28;20096;-70
2021/10/28 19:11:05;;;;;;;41.33;21.58;;;;;;;10.49;68.63;100870.81;5067700;28;20044;-67
2021/10/28 19:13:35;;;;;;;39.53;19.67;;;;;;;10.51;68.30;100888.25;5067616;28;20063;-70
2021/10/28 19:16:01;;;;;;;32.85;18.73;;;;;;;10.35;68.87;100890.50;5067615;28;20036;-70
2021/10/28 19:18:27;;;;;;;35.92;18.77;;;;;;;10.08;70.29;100887.56;5067626;28;20095;-69
2021/10/28 19:20:52;;;;;;;39.15;20.02;;;;;;;10.02;70.84;100888.09;5059905;28;20320;-68
2021/10/28 19:23:18;;;;;;;33.10;18.95;;;;;;;9.99;71.42;100893.63;5058821;28;20040;-67
2021/10/28 19:25:44;;;;;;;36.03;18.15;;;;;;;10.12;70.73;100895.09;5060453;28;20104;-70
2021/10/28 19:28:10;;;;;;;35.90;17.45;;;;;;;10.22;70.58;100890.72;5060455;28;20052;-70
2021/10/28 19:30:47;;;;;;;28.92;15.88;;;;;;;10.18;70.89;100897.22;5059723;28;20063;-67
2021/10/28 19:33:22;;;;;;;33.92;16.42;;;;;;;10.15;70.77;100897.50;5058189;28;20261;-67
2021/10/28 19:35:58;;;;;;;27.67;15.85;;;;;;;10.00;71.25;100896.16;5058567;28;20138;-69
2021/10/28 19:46:33;;;;;;;28.77;15.75;;;;;;;9.92;72.43;100904.75;5061323;28;20226;-67
2021/10/28 19:48:59;;;;;;;36.20;16.27;;;;;;;10.04;72.27;100908.16;5060207;28;20414;-65
2021/10/28 19:51:26;;;;;;;26.27;15.90;;;;;;;10.29;71.79;100911.38;5059737;28;20063;-66
2021/10/28 19:53:52;;;;;;;27.52;15.77;;;;;;;10.46;70.68;100921.38;5058776;28;20037;-65
2021/10/28 19:56:19;;;;;;;28.20;14.27;;;;;;;10.57;70.47;100918.66;5059206;28;20032;-68
2021/10/28 19:58:50;;;;;;;30.27;15.70;;;;;;;10.70;68.99;100919.25;5061147;28;20246;-68
2021/10/28 20:01:39;;;;;;;25.20;14.52;;;;;;;10.70;68.25;100932.50;5056310;28;20043;-65
2021/10/28 20:20:14;;;;;;;28.65;15.77;;;;;;;10.40;70.14;100917.47;5058031;28;20514;-66
2021/10/28 20:22:45;;;;;;;27.00;15.90;;;;;;;10.43;70.32;100922.50;5057072;28;20284;-68
2021/10/28 20:25:13;;;;;;;25.83;15.77;;;;;;;10.50;69.81;100922.78;5056546;28;20095;-69
2021/10/28 20:27:40;;;;;;;31.30;16.95;;;;;;;10.55;69.75;100923.25;5058256;28;20246;-68
2021/10/28 20:30:07;;;;;;;24.27;14.73;;;;;;;10.59;69.98;100934.41;5055870;28;20045;-68
2021/10/28 20:32:33;;;;;;;32.10;17.00;;;;;;;10.50;69.64;100915.69;5055661;28;20033;-65
2021/10/28 20:37:32;;;;;;;30.60;15.00;;;;;;;10.74;67.62;100938.38;5057637;28;20313;-68
2021/10/28 20:39:58;;;;;;;36.00;13.88;;;;;;;10.77;67.77;100941.59;5056025;28;21306;-69
2021/10/28 20:42:23;;;;;;;32.05;14.38;;;;;;;10.42;68.79;100938.50;5055446;28;20078;-67